Time;durP1;ratioP1;P1;durP2;ratioP2;P2;SDS_P1;SDS_P2;PMS_P1;PMS_P2;Temp;Humidity;BMP_temperature;BMP_pressure;BME280_temperature;BME280_humidity;BME280_pressure;Samples;Min_cycle;Max_cycle;Signal;HPM_P1;HPM_P2
2023/01/20 00:01:08;;;;;;;7.85;3.60;;;-1.10;99.90;;;;;;5072337;28;20043;-82
2023/01/20 00:03:34;;;;;;;8.73;3.33;;;-1.00;99.90;;;;;;5064716;28;20104;-84
2023/01/20 00:06:00;;;;;;;8.15;3.55;;;-1.00;99.90;;;;;;5083664;28;20036;-86
2023/01/20 00:08:26;;;;;;;6.90;3.50;;;-1.00;99.90;;;;;;5094201;28;20687;-82
2023/01/20 00:10:51;;;;;;;7.38;3.47;;;-0.90;99.90;;;;;;5073961;28;20048;-85
2023/01/20 00:13:17;;;;;;;7.97;3.67;;;-0.90;99.90;;;;;;5078472;28;20073;-84
2023/01/20 00:15:43;;;;;;;7.28;3.45;;;-0.80;99.90;;;;;;5053390;28;20401;-82
2023/01/20 00:18:08;;;;;;;7.47;3.60;;;-0.90;99.90;;;;;;5055231;28;20059;-82
2023/01/20 00:20:34;;;;;;;7.85;3.67;;;-0.90;99.90;;;;;;5075715;28;20124;-84
2023/01/20 00:23:00;;;;;;;7.28;3.78;;;-0.90;99.90;;;;;;5065609;28;20036;-82
2023/01/20 00:25:25;;;;;;;11.80;4.90;;;-0.70;99.90;;;;;;5053698;28;20055;-82
2023/01/20 00:27:54;;;;;;;7.72;3.95;;;-0.90;99.90;;;;;;5057663;28;20043;-82
2023/01/20 00:30:21;;;;;;;8.93;3.75;;;-0.80;99.90;;;;;;5054469;28;20046;-82
2023/01/20 00:32:46;;;;;;;7.25;3.97;;;-0.90;99.90;;;;;;5080544;28;20457;-83
2023/01/20 00:35:12;;;;;;;6.78;3.85;;;-0.90;99.90;;;;;;5072975;28;20047;-82
2023/01/20 00:37:38;;;;;;;8.57;4.45;;;-0.90;99.90;;;;;;5069594;28;20055;-82
2023/01/20 00:40:05;;;;;;;10.95;4.85;;;-0.90;99.90;;;;;;5070102;28;20047;-89
2023/01/20 00:42:31;;;;;;;8.40;4.88;;;-0.80;99.90;;;;;;5061812;27;20126;-82
2023/01/20 00:44:57;;;;;;;10.02;5.03;;;-0.80;99.90;;;;;;5068687;28;20051;-82
2023/01/20 00:47:23;;;;;;;8.70;4.55;;;-0.60;99.90;;;;;;5075349;28;20040;-83
2023/01/20 00:49:48;;;;;;;10.52;5.57;;;-0.50;99.90;;;;;;5037333;28;20083;-82
2023/01/20 00:52:14;;;;;;;13.52;6.38;;;-0.40;99.90;;;;;;5067646;28;21229;-83
2023/01/20 00:54:40;;;;;;;13.73;6.47;;;-0.20;99.90;;;;;;5075073;28;20051;-82
2023/01/20 00:57:06;;;;;;;13.52;7.43;;;-0.30;99.90;;;;;;5074209;28;20047;-82
2023/01/20 00:59:31;;;;;;;13.30;6.72;;;-0.20;99.90;;;;;;5066242;28;20079;-84
2023/01/20 01:01:57;;;;;;;17.35;7.43;;;-0.10;99.90;;;;;;5066100;28;20601;-82
2023/01/20 01:04:23;;;;;;;17.85;7.93;;;0.00;99.90;;;;;;5060287;28;20168;-82
2023/01/20 01:06:49;;;;;;;18.13;8.73;;;0.00;99.90;;;;;;5061242;28;20040;-82
2023/01/20 01:09:15;;;;;;;20.17;8.75;;;0.00;99.90;;;;;;5047838;28;20044;-83
2023/01/20 01:11:40;;;;;;;19.02;9.02;;;0.10;99.90;;;;;;5069054;28;20052;-82
2023/01/20 01:14:06;;;;;;;25.40;10.93;;;0.10;99.90;;;;;;5070653;28;20061;-83
2023/01/20 01:16:32;;;;;;;28.77;11.63;;;0.30;99.90;;;;;;5065412;28;20075;-82
2023/01/20 01:18:57;;;;;;;26.60;10.20;;;0.20;99.90;;;;;;5055265;28;20066;-83
2023/01/20 01:21:23;;;;;;;28.50;11.07;;;0.20;99.90;;;;;;5098066;28;20044;-83
2023/01/20 01:23:50;;;;;;;33.75;12.23;;;0.20;99.90;;;;;;5067407;28;20051;-83
2023/01/20 01:26:16;;;;;;;32.25;12.85;;;0.20;99.90;;;;;;5072841;28;20086;-82
2023/01/20 01:28:42;;;;;;;30.88;12.85;;;0.20;99.90;;;;;;5059319;28;20040;-82
2023/01/20 01:31:08;;;;;;;38.45;14.25;;;0.20;99.90;;;;;;5067817;28;20126;-82
2023/01/20 01:33:34;;;;;;;39.05;13.27;;;0.30;99.90;;;;;;5073777;28;20047;-83
2023/01/20 01:36:01;;;;;;;28.52;13.05;;;0.30;99.90;;;;;;5061849;28;20458;-82
2023/01/20 01:38:28;;;;;;;37.42;14.23;;;0.30;99.90;;;;;;5078732;28;20044;-82
2023/01/20 01:40:55;;;;;;;36.00;14.57;;;0.30;99.90;;;;;;5095631;28;20044;-83
2023/01/20 01:43:24;;;;;;;32.22;12.98;;;0.30;99.90;;;;;;5087366;28;20415;-83
2023/01/20 01:45:50;;;;;;;35.65;14.32;;;0.30;99.90;;;;;;5093380;28;20400;-83
2023/01/20 01:48:18;;;;;;;35.95;15.15;;;0.40;99.90;;;;;;5076396;28;20043;-84
2023/01/20 01:50:59;;;;;;;40.20;14.80;;;0.40;99.90;;;;;;5087978;28;20076;-83
2023/01/20 01:53:28;;;;;;;38.97;15.35;;;0.40;99.90;;;;;;5072018;28;20104;-83
2023/01/20 01:55:58;;;;;;;39.17;15.93;;;0.40;99.90;;;;;;5075592;28;20034;-83
2023/01/20 01:58:31;;;;;;;39.05;15.48;;;0.40;99.90;;;;;;5089679;28;20366;-83
2023/01/20 02:00:57;;;;;;;39.78;16.02;;;0.40;99.90;;;;;;5072534;28;20076;-82
2023/01/20 02:03:24;;;;;;;35.15;14.73;;;0.40;99.90;;;;;;5094467;28;20086;-81
2023/01/20 02:05:52;;;;;;;40.50;15.50;;;0.30;99.90;;;;;;5073598;28;20056;-82
2023/01/20 02:08:18;;;;;;;33.50;14.35;;;0.30;99.90;;;;;;5056888;28;20185;-85
2023/01/20 02:10:44;;;;;;;24.63;11.02;;;0.40;99.90;;;;;;5067677;28;20052;-84
2023/01/20 02:13:10;;;;;;;30.17;13.50;;;0.30;99.90;;;;;;5052705;28;20051;-82
2023/01/20 02:15:51;;;;;;;31.80;14.73;;;0.40;99.90;;;;;;5075933;28;20384;-82
2023/01/20 02:18:31;;;;;;;31.00;13.50;;;0.40;99.90;;;;;;5082683;28;20048;-83
2023/01/20 02:21:15;;;;;;;28.90;13.52;;;0.40;99.90;;;;;;5079569;28;20568;-83
2023/01/20 02:24:10;;;;;;;29.98;14.13;;;0.40;99.90;;;;;;5082010;28;20085;-82
2023/01/20 02:27:04;;;;;;;28.77;13.75;;;0.40;99.90;;;;;;5074809;28;20040;-82
2023/01/20 02:29:50;;;;;;;25.42;11.48;;;0.40;99.90;;;;;;5056708;28;20047;-83
2023/01/20 02:32:57;;;;;;;30.48;14.05;;;0.40;99.90;;;;;;5075195;28;20040;-82
2023/01/20 02:35:32;;;;;;;29.10;13.73;;;0.40;99.90;;;;;;5061344;28;20047;-86
2023/01/20 02:38:13;;;;;;;32.85;14.80;;;0.50;99.90;;;;;;5091393;28;20043;-82
2023/01/20 02:41:01;;;;;;;31.30;14.52;;;0.40;99.90;;;;;;5073939;28;20051;-82
2023/01/20 02:43:42;;;;;;;37.65;16.10;;;0.50;99.90;;;;;;5082198;28;20051;-87
2023/01/20 02:46:24;;;;;;;36.53;15.73;;;0.40;99.90;;;;;;5076220;28;20088;-83
2023/01/20 02:48:58;;;;;;;38.03;16.45;;;0.40;99.90;;;;;;5085799;28;20044;-82
2023/01/20 02:51:36;;;;;;;35.22;15.60;;;0.40;99.90;;;;;;5073889;28;20065;-85
2023/01/20 02:54:07;;;;;;;36.65;16.17;;;0.40;99.90;;;;;;5071856;28;20128;-82
2023/01/20 02:56:34;;;;;;;38.17;17.15;;;0.40;99.90;;;;;;5060928;28;20366;-82
2023/01/20 02:59:03;;;;;;;40.03;17.70;;;0.40;99.90;;;;;;5061585;28;20397;-82
2023/01/20 03:01:54;;;;;;;36.67;16.65;;;0.40;99.90;;;;;;5088656;28;20047;-86
2023/01/20 03:04:28;;;;;;;32.15;15.75;;;0.40;99.90;;;;;;5085554;28;20389;-82
2023/01/20 03:06:57;;;;;;;34.50;15.93;;;0.30;99.90;;;;;;5080822;28;20071;-83
2023/01/20 03:09:30;;;;;;;40.63;16.85;;;0.30;99.90;;;;;;5076389;28;20094;-82
2023/01/20 03:12:05;;;;;;;39.88;18.42;;;0.30;99.90;;;;;;5093387;28;20051;-82
2023/01/20 03:14:31;;;;;;;39.53;17.95;;;0.30;99.90;;;;;;5089719;28;20071;-84
2023/01/20 03:16:57;;;;;;;41.97;18.83;;;0.30;99.90;;;;;;5070342;28;20086;-82
2023/01/20 03:19:23;;;;;;;37.83;18.40;;;0.20;99.90;;;;;;5058256;28;20488;-83
2023/01/20 03:21:48;;;;;;;37.58;17.38;;;0.20;99.90;;;;;;5083477;28;20392;-84
2023/01/20 03:24:14;;;;;;;42.00;18.15;;;0.20;99.90;;;;;;5088427;28;20039;-83
2023/01/20 03:26:40;;;;;;;43.78;18.17;;;0.20;99.90;;;;;;5076673;28;20059;-83
2023/01/20 03:29:14;;;;;;;42.13;18.15;;;0.10;99.90;;;;;;5089044;28;20040;-81
2023/01/20 03:32:00;;;;;;;42.70;18.48;;;0.10;99.90;;;;;;5066509;28;20074;-82
2023/01/20 03:34:30;;;;;;;42.47;16.98;;;0.10;99.90;;;;;;5076709;28;20044;-82
2023/01/20 03:36:56;;;;;;;40.22;17.35;;;0.20;99.90;;;;;;5071470;28;20040;-82
2023/01/20 03:39:23;;;;;;;47.53;20.00;;;0.20;99.90;;;;;;5050243;28;20477;-82
2023/01/20 03:42:08;;;;;;;46.60;19.42;;;0.20;99.90;;;;;;5076575;28;20059;-82
2023/01/20 03:44:39;;;;;;;46.17;17.80;;;0.20;99.90;;;;;;5086151;28;20058;-87
2023/01/20 03:47:39;;;;;;;52.63;19.00;;;0.30;99.90;;;;;;5076874;28;20039;-82
2023/01/20 03:50:13;;;;;;;46.30;17.63;;;0.30;99.90;;;;;;5078309;27;20051;-82
2023/01/20 03:52:49;;;;;;;46.33;18.75;;;0.30;99.90;;;;;;5080739;28;20044;-82
2023/01/20 03:55:51;;;;;;;43.15;17.88;;;0.30;99.90;;;;;;5080280;28;20042;-83
2023/01/20 03:58:26;;;;;;;46.78;18.60;;;0.30;99.90;;;;;;5041669;28;20063;-82
2023/01/20 04:00:52;;;;;;;55.00;18.57;;;0.30;99.90;;;;;;5073391;28;20051;-83
2023/01/20 04:03:26;;;;;;;51.13;18.88;;;0.40;99.90;;;;;;5058701;28;20050;-83
2023/01/20 04:05:53;;;;;;;50.88;17.92;;;0.30;99.90;;;;;;5095836;28;20039;-82
2023/01/20 04:08:23;;;;;;;57.95;19.45;;;0.30;99.90;;;;;;5077453;28;20105;-82
2023/01/20 04:10:50;;;;;;;47.90;16.52;;;0.30;99.90;;;;;;5068632;28;20079;-83
2023/01/20 04:13:16;;;;;;;45.78;17.05;;;0.30;99.90;;;;;;5048925;28;20839;-81
2023/01/20 04:15:43;;;;;;;54.55;19.38;;;0.30;99.90;;;;;;5068751;28;20055;-83
2023/01/20 04:18:18;;;;;;;45.58;18.05;;;0.30;99.90;;;;;;5084351;28;20051;-85
2023/01/20 04:21:05;;;;;;;42.33;15.63;;;0.30;99.90;;;;;;5072150;28;20580;-85
2023/01/20 04:23:33;;;;;;;37.30;15.13;;;0.30;99.90;;;;;;5057633;28;20044;-82
2023/01/20 04:25:59;;;;;;;43.78;16.63;;;0.40;99.90;;;;;;5080843;28;20646;-82
2023/01/20 04:28:25;;;;;;;43.13;16.92;;;0.30;99.90;;;;;;5058044;28;20130;-82
2023/01/20 04:30:50;;;;;;;46.40;17.83;;;0.30;99.90;;;;;;5081189;28;20090;-82
2023/01/20 04:33:16;;;;;;;42.25;17.05;;;0.40;99.90;;;;;;5079517;28;20114;-81
2023/01/20 04:35:42;;;;;;;46.78;18.05;;;0.40;99.90;;;;;;5064794;28;20055;-85
2023/01/20 04:38:08;;;;;;;45.28;16.45;;;0.40;99.90;;;;;;5089181;28;20115;-81
2023/01/20 04:40:34;;;;;;;41.05;16.55;;;0.40;99.90;;;;;;5060085;28;20048;-81
2023/01/20 04:42:59;;;;;;;40.47;16.30;;;0.40;99.90;;;;;;5074485;28;20083;-81
2023/01/20 04:45:25;;;;;;;40.40;15.77;;;0.50;99.90;;;;;;5070111;28;20075;-82
2023/01/20 04:47:51;;;;;;;37.83;15.48;;;0.40;99.90;;;;;;5061129;28;20040;-82
2023/01/20 04:50:16;;;;;;;43.25;16.13;;;0.40;99.90;;;;;;5088406;28;20036;-82
2023/01/20 04:52:43;;;;;;;45.45;16.17;;;0.30;99.90;;;;;;5073603;28;20134;-85
2023/01/20 04:55:10;;;;;;;37.85;14.25;;;0.40;99.90;;;;;;5092762;28;20052;-83
2023/01/20 04:57:35;;;;;;;39.15;15.55;;;0.30;99.90;;;;;;5058005;28;20122;-82
2023/01/20 05:00:02;;;;;;;39.55;15.75;;;0.30;99.90;;;;;;5058570;28;20123;-82
2023/01/20 05:02:28;;;;;;;37.38;15.18;;;0.30;99.90;;;;;;5077643;28;20047;-84
2023/01/20 05:05:09;;;;;;;34.63;14.48;;;0.40;99.90;;;;;;5039210;28;20078;-82
2023/01/20 05:07:34;;;;;;;41.03;14.93;;;0.40;99.90;;;;;;5061481;28;20072;-81
2023/01/20 05:10:00;;;;;;;38.55;14.65;;;0.40;99.90;;;;;;5054062;28;20086;-82
2023/01/20 05:12:26;;;;;;;43.33;16.60;;;0.40;99.90;;;;;;5055708;28;20052;-83
2023/01/20 05:14:51;;;;;;;39.97;15.48;;;0.40;99.90;;;;;;5060009;28;20082;-82
2023/01/20 05:17:17;;;;;;;41.22;15.77;;;0.40;99.90;;;;;;5044157;28;20047;-82
2023/01/20 05:19:43;;;;;;;41.13;16.00;;;0.40;99.90;;;;;;5074988;28;20131;-83
2023/01/20 05:22:09;;;;;;;39.28;15.02;;;0.40;99.90;;;;;;5068649;28;20062;-82
2023/01/20 05:24:35;;;;;;;39.75;15.55;;;0.40;99.90;;;;;;5073139;28;20051;-82
2023/01/20 05:27:00;;;;;;;42.15;14.65;;;0.40;99.90;;;;;;5086915;28;20040;-82
2023/01/20 05:29:27;;;;;;;38.05;15.63;;;0.40;99.90;;;;;;5075023;28;20047;-83
2023/01/20 05:31:53;;;;;;;39.17;16.58;;;0.40;99.90;;;;;;5072863;28;20055;-83
2023/01/20 05:34:19;;;;;;;37.70;15.45;;;0.30;99.90;;;;;;5060180;28;20044;-84
2023/01/20 05:36:44;;;;;;;39.58;15.20;;;0.30;99.90;;;;;;5065648;28;20054;-82
2023/01/20 05:39:10;;;;;;;41.63;16.58;;;0.30;99.90;;;;;;5082459;28;20055;-82
2023/01/20 05:41:36;;;;;;;39.08;16.00;;;0.40;99.90;;;;;;5072621;28;20047;-82
2023/01/20 05:44:01;;;;;;;37.00;15.00;;;0.40;99.90;;;;;;5056535;28;20051;-82
2023/01/20 05:46:27;;;;;;;39.90;16.00;;;0.40;99.90;;;;;;5060362;28;20048;-83
2023/01/20 05:48:53;;;;;;;38.55;16.17;;;0.40;99.90;;;;;;5076549;28;20230;-88
2023/01/20 05:51:18;;;;;;;41.33;15.63;;;0.40;99.90;;;;;;5087033;28;20055;-83
2023/01/20 05:53:45;;;;;;;42.47;15.70;;;0.30;99.90;;;;;;5065991;28;20396;-84
2023/01/20 05:56:14;;;;;;;39.22;16.40;;;0.40;99.90;;;;;;5081888;28;20083;-86
2023/01/20 05:58:40;;;;;;;40.03;17.15;;;0.40;99.90;;;;;;5075182;28;20044;-84
2023/01/20 06:01:09;;;;;;;35.88;15.98;;;0.50;99.90;;;;;;5076819;28;20054;-82
2023/01/20 06:03:35;;;;;;;44.53;16.55;;;0.40;99.90;;;;;;5093756;28;20070;-83
2023/01/20 06:06:03;;;;;;;40.65;16.50;;;0.40;99.90;;;;;;5080036;28;20078;-83
2023/01/20 06:08:29;;;;;;;35.55;15.95;;;0.50;99.90;;;;;;5077592;28;20079;-82
2023/01/20 06:10:54;;;;;;;39.30;16.10;;;0.40;99.90;;;;;;5057975;28;20101;-86
2023/01/20 06:13:20;;;;;;;42.40;16.48;;;0.40;99.90;;;;;;5072748;28;20473;-83
2023/01/20 06:15:54;;;;;;;36.03;16.67;;;0.40;99.90;;;;;;5076171;28;20048;-85
2023/01/20 06:18:21;;;;;;;43.42;18.23;;;0.50;99.90;;;;;;5076453;28;20413;-84
2023/01/20 06:20:48;;;;;;;40.55;17.42;;;0.50;99.90;;;;;;5043625;28;20065;-83
2023/01/20 06:23:15;;;;;;;43.35;17.95;;;0.40;99.90;;;;;;5073622;28;20119;-83
2023/01/20 06:25:41;;;;;;;43.05;19.13;;;0.40;99.90;;;;;;5084301;28;20050;-83
2023/01/20 06:28:07;;;;;;;47.42;18.70;;;0.40;99.90;;;;;;5082905;28;20078;-83
2023/01/20 06:30:33;;;;;;;41.83;18.33;;;0.50;99.90;;;;;;5045338;28;20048;-83
2023/01/20 06:32:59;;;;;;;46.53;19.35;;;0.50;99.90;;;;;;5062493;28;20051;-85
2023/01/20 06:35:25;;;;;;;44.38;18.73;;;0.40;99.90;;;;;;5044826;28;20044;-83
2023/01/20 06:37:51;;;;;;;45.35;18.55;;;0.40;99.90;;;;;;5058798;28;20051;-82
2023/01/20 06:40:18;;;;;;;47.35;18.30;;;0.40;99.90;;;;;;5088746;28;20065;-83
2023/01/20 06:42:43;;;;;;;42.28;17.92;;;0.40;99.90;;;;;;5092514;28;20047;-82
2023/01/20 06:45:09;;;;;;;44.78;18.23;;;0.50;99.90;;;;;;5043902;28;20038;-82
2023/01/20 06:47:35;;;;;;;45.15;19.20;;;0.40;99.90;;;;;;5071111;28;20074;-82
2023/01/20 06:50:01;;;;;;;49.85;19.80;;;0.40;99.90;;;;;;5077486;28;20193;-88
2023/01/20 06:52:26;;;;;;;53.95;19.05;;;0.50;99.90;;;;;;5070572;28;20040;-79
2023/01/20 06:54:52;;;;;;;47.90;19.10;;;0.50;99.90;;;;;;5065147;28;20048;-82
2023/01/20 06:57:18;;;;;;;49.10;19.17;;;0.50;99.90;;;;;;5043589;28;20044;-85
2023/01/20 06:59:44;;;;;;;50.35;20.45;;;0.50;99.90;;;;;;5093348;28;20096;-87
2023/01/20 07:02:13;;;;;;;49.63;19.67;;;0.60;99.90;;;;;;5056212;28;20124;-85
2023/01/20 07:04:38;;;;;;;48.13;20.08;;;0.50;99.90;;;;;;5066120;28;20130;-85
2023/01/20 07:07:04;;;;;;;52.47;20.67;;;0.60;99.90;;;;;;5048330;28;20131;-88
2023/01/20 07:09:30;;;;;;;44.13;19.00;;;0.50;99.90;;;;;;5038674;28;20047;-85
2023/01/20 07:11:58;;;;;;;48.58;20.20;;;0.60;99.90;;;;;;5090445;28;20055;-85
2023/01/20 07:14:24;;;;;;;47.55;20.55;;;0.50;99.90;;;;;;5078328;28;20553;-86
2023/01/20 07:16:49;;;;;;;49.75;20.77;;;0.50;99.90;;;;;;5046582;28;20082;-85
2023/01/20 07:19:15;;;;;;;51.80;21.13;;;0.60;99.90;;;;;;5064492;28;20093;-85
2023/01/20 07:21:41;;;;;;;51.40;21.17;;;0.50;99.90;;;;;;5085526;28;20043;-85
2023/01/20 07:24:08;;;;;;;48.58;20.73;;;0.50;99.90;;;;;;5045054;28;20489;-89
2023/01/20 07:26:35;;;;;;;57.10;22.38;;;0.50;99.90;;;;;;5087948;28;20040;-85
2023/01/20 07:29:00;;;;;;;50.25;21.15;;;0.50;99.90;;;;;;5057424;28;20051;-85
2023/01/20 07:31:28;;;;;;;55.85;20.85;;;0.50;99.90;;;;;;5068588;28;20315;-85
2023/01/20 07:33:55;;;;;;;48.17;20.90;;;0.50;99.90;;;;;;5092937;28;20389;-85
2023/01/20 07:36:21;;;;;;;49.50;22.38;;;0.60;99.90;;;;;;5093025;28;20101;-85
2023/01/20 07:38:50;;;;;;;54.20;21.85;;;0.60;99.90;;;;;;5062788;28;20488;-85
2023/01/20 07:41:18;;;;;;;50.97;21.90;;;0.60;99.90;;;;;;5077362;28;20484;-84
2023/01/20 07:43:49;;;;;;;52.92;22.08;;;0.60;99.90;;;;;;5075953;28;20151;-86
2023/01/20 07:46:15;;;;;;;56.67;23.05;;;0.60;99.90;;;;;;5082340;28;20596;-85
2023/01/20 07:48:41;;;;;;;56.78;22.75;;;0.60;99.90;;;;;;5069431;28;20063;-86
2023/01/20 07:51:10;;;;;;;49.30;21.23;;;0.60;99.90;;;;;;5093294;28;20523;-84
2023/01/20 07:53:46;;;;;;;56.00;23.85;;;0.50;99.90;;;;;;5073035;28;20130;-84
2023/01/20 07:56:13;;;;;;;;;;;0.60;99.90;;;;;;5079584;28;20545;-91
2023/01/20 07:58:39;;;;;;;43.90;20.83;;;0.60;99.90;;;;;;5084150;28;19927;-86
2023/01/20 08:01:09;;;;;;;54.08;21.10;;;0.60;99.90;;;;;;5052629;28;20040;-86
2023/01/20 08:03:37;;;;;;;53.53;21.88;;;0.60;99.90;;;;;;5076383;28;20052;-87
2023/01/20 08:06:05;;;;;;;54.22;22.67;;;0.60;99.90;;;;;;5073036;28;20522;-85
2023/01/20 08:08:32;;;;;;;56.53;22.73;;;0.60;99.90;;;;;;5074119;28;20043;-88
2023/01/20 08:11:31;;;;;;;;;;;;;;;;;;;;;
2023/01/20 08:14:09;;;;;;;51.13;22.33;;;0.60;99.90;;;;;;5079044;28;20043;-88
2023/01/20 08:19:52;;;;;;;47.63;21.13;;;0.60;99.90;;;;;;5079205;28;20400;-87
2023/01/20 08:22:35;;;;;;;;;;;;;;;;;;;;;
2023/01/20 08:25:23;;;;;;;54.10;23.05;;;0.70;99.90;;;;;;5087153;28;20123;-88
2023/01/20 08:28:07;;;;;;;53.85;22.08;;;0.60;99.90;;;;;;5084760;28;20066;-90
2023/01/20 08:31:37;;;;;;;51.33;21.27;;;0.70;99.90;;;;;;5074706;28;20100;-88
2023/01/20 08:34:17;;;;;;;50.53;21.13;;;0.70;99.90;;;;;;5088177;28;20058;-88
2023/01/20 08:36:47;;;;;;;53.42;22.27;;;0.70;99.90;;;;;;5075466;28;20091;-86
2023/01/20 08:39:17;;;;;;;55.58;23.33;;;0.70;99.90;;;;;;5079571;28;20130;-86
2023/01/20 08:41:46;;;;;;;50.53;22.50;;;0.70;99.90;;;;;;5082777;28;20120;-86
2023/01/20 08:44:12;;;;;;;55.72;23.58;;;0.80;99.90;;;;;;5079674;28;20127;-87
2023/01/20 08:46:44;;;;;;;57.50;23.52;;;0.80;99.90;;;;;;5086570;28;20880;-87
2023/01/20 08:49:16;;;;;;;54.55;21.88;;;0.70;99.90;;;;;;5069591;28;20082;-85
2023/01/20 08:51:47;;;;;;;48.38;21.77;;;0.80;99.90;;;;;;5084066;28;20050;-87
2023/01/20 08:54:14;;;;;;;51.83;22.52;;;0.90;99.90;;;;;;5063874;28;20048;-86
2023/01/20 08:59:25;;;;;;;55.47;23.42;;;0.90;99.90;;;;;;5086194;28;20045;-90
2023/01/20 09:01:51;;;;;;;53.92;23.35;;;0.80;99.90;;;;;;5084493;28;20055;-87
2023/01/20 09:04:20;;;;;;;53.55;23.17;;;1.00;99.90;;;;;;5062987;28;20086;-88
2023/01/20 09:06:52;;;;;;;56.38;22.92;;;1.00;99.90;;;;;;5068283;28;20070;-87
2023/01/20 09:09:24;;;;;;;51.22;22.38;;;0.90;99.90;;;;;;5077895;28;20089;-87
2023/01/20 09:11:55;;;;;;;55.53;23.88;;;1.00;99.90;;;;;;5072576;28;20068;-85
2023/01/20 09:14:27;;;;;;;54.00;22.45;;;1.00;99.90;;;;;;5070386;28;20109;-92
2023/01/20 09:16:55;;;;;;;54.60;22.65;;;1.00;99.90;;;;;;5077305;28;20405;-85
2023/01/20 09:19:39;;;;;;;53.33;22.60;;;1.10;99.90;;;;;;5063197;28;20097;-89
2023/01/20 09:22:05;;;;;;;57.35;23.77;;;1.10;99.90;;;;;;5072349;27;20092;-85
2023/01/20 09:24:39;;;;;;;56.10;23.23;;;1.10;99.90;;;;;;5075762;28;20132;-88
2023/01/20 09:27:05;;;;;;;57.97;23.63;;;1.10;99.90;;;;;;5074363;28;20484;-89
2023/01/20 09:29:35;;;;;;;56.30;23.70;;;1.10;99.90;;;;;;5075097;28;20050;-85
2023/01/20 09:32:11;;;;;;;;;;;;;;;;;;;;;
2023/01/20 09:34:46;;;;;;;;;;;1.20;99.90;;;;;;5078238;28;20044;-84
2023/01/20 09:43:55;;;;;;;57.20;22.80;;;1.20;99.90;;;;;;5088950;28;20060;-85
2023/01/20 09:46:34;;;;;;;64.28;25.83;;;1.20;99.90;;;;;;5080029;28;20071;-84
2023/01/20 09:55:06;;;;;;;65.85;25.45;;;1.30;99.90;;;;;;5088762;28;20044;-84
2023/01/20 09:57:36;;;;;;;59.65;24.38;;;1.30;99.90;;;;;;5062908;28;20048;-84
2023/01/20 10:00:15;;;;;;;57.85;23.52;;;1.40;99.90;;;;;;5081667;28;20043;-85
2023/01/20 10:02:47;;;;;;;65.88;24.90;;;1.30;99.90;;;;;;5070459;28;20112;-84
2023/01/20 10:05:19;;;;;;;58.15;23.70;;;1.40;99.90;;;;;;5084919;28;20047;-85
2023/01/20 10:08:02;;;;;;;61.85;24.73;;;1.40;99.90;;;;;;5073507;28;20099;-86
2023/01/20 10:10:48;;;;;;;56.20;23.98;;;1.50;99.90;;;;;;5076925;28;20047;-89
2023/01/20 10:13:39;;;;;;;60.37;24.40;;;1.40;99.90;;;;;;5082414;28;20056;-90
2023/01/20 10:16:12;;;;;;;63.25;25.73;;;1.40;99.90;;;;;;5073895;28;20320;-84
2023/01/20 10:18:56;;;;;;;58.20;25.17;;;1.60;99.90;;;;;;5092858;28;20057;-86
2023/01/20 10:21:35;;;;;;;60.72;24.52;;;1.60;99.90;;;;;;5099433;28;20484;-85
2023/01/20 10:24:11;;;;;;;64.63;25.30;;;1.60;99.90;;;;;;5068755;28;20052;-85
2023/01/20 10:26:48;;;;;;;64.15;24.98;;;1.80;99.90;;;;;;5078035;28;20048;-85
2023/01/20 10:29:28;;;;;;;59.50;25.10;;;1.70;99.90;;;;;;5085616;28;20473;-85
2023/01/20 10:31:59;;;;;;;58.58;24.67;;;1.60;99.90;;;;;;5080556;28;20058;-87
2023/01/20 10:34:55;;;;;;;60.85;26.90;;;1.70;99.90;;;;;;5080776;28;20051;-85
2023/01/20 10:37:27;;;;;;;63.85;24.20;;;1.80;99.90;;;;;;5078233;28;20059;-85
2023/01/20 10:40:16;;;;;;;62.92;24.92;;;1.70;99.90;;;;;;5076199;28;20139;-86
2023/01/20 10:42:48;;;;;;;56.08;23.40;;;1.70;99.90;;;;;;5087093;28;20063;-89
2023/01/20 10:45:26;;;;;;;52.58;22.52;;;1.80;99.90;;;;;;5074419;28;20074;-88
2023/01/20 10:48:18;;;;;;;55.22;23.30;;;1.70;99.90;;;;;;5066552;28;20485;-87
2023/01/20 10:51:03;;;;;;;51.22;22.40;;;1.70;99.90;;;;;;5066979;28;20043;-89
2023/01/20 10:53:34;;;;;;;54.92;22.40;;;1.80;99.90;;;;;;5076049;28;20469;-87
2023/01/20 10:56:15;;;;;;;48.58;20.90;;;1.80;99.90;;;;;;5075376;28;20262;-84
2023/01/20 10:58:44;;;;;;;51.33;20.98;;;1.80;99.90;;;;;;5081921;28;20040;-85
2023/01/20 11:01:16;;;;;;;48.33;20.67;;;1.70;99.90;;;;;;5070633;28;20055;-85
2023/01/20 11:03:45;;;;;;;50.67;20.40;;;1.80;99.90;;;;;;5097651;27;20477;-87
2023/01/20 11:06:25;;;;;;;54.28;21.50;;;1.80;99.90;;;;;;5077726;28;20050;-85
2023/01/20 11:08:51;;;;;;;53.53;22.52;;;2.00;99.90;;;;;;5084798;27;20039;-85
2023/01/20 11:11:21;;;;;;;53.33;21.38;;;1.90;99.90;;;;;;5086028;28;20070;-85
2023/01/20 11:13:50;;;;;;;49.60;21.27;;;2.00;99.90;;;;;;5075599;28;20051;-86
2023/01/20 11:16:27;;;;;;;50.88;21.77;;;2.10;99.90;;;;;;5075900;28;20037;-85
2023/01/20 11:18:56;;;;;;;49.40;22.05;;;2.00;99.90;;;;;;5073512;28;20424;-85
2023/01/20 11:21:24;;;;;;;57.17;23.10;;;2.00;99.90;;;;;;5085272;28;20480;-85
2023/01/20 11:23:51;;;;;;;57.42;22.77;;;2.10;99.90;;;;;;5060901;28;20044;-85
2023/01/20 11:26:26;;;;;;;53.10;22.30;;;2.00;99.90;;;;;;5081720;28;20477;-85
2023/01/20 11:29:10;;;;;;;55.45;23.60;;;2.10;99.90;;;;;;5090312;28;20125;-85
2023/01/20 11:31:38;;;;;;;50.92;21.40;;;2.00;99.90;;;;;;5090816;28;20043;-85
2023/01/20 11:34:25;;;;;;;51.28;20.65;;;2.20;99.90;;;;;;5103588;28;20766;-85
2023/01/20 11:37:24;;;;;;;51.28;21.17;;;2.10;99.90;;;;;;5081927;28;20123;-86
2023/01/20 11:39:50;;;;;;;44.58;19.25;;;2.10;99.90;;;;;;5089676;28;20138;-86
2023/01/20 11:42:16;;;;;;;46.45;18.73;;;2.10;99.90;;;;;;5077587;28;20135;-84
2023/01/20 11:44:43;;;;;;;46.97;20.35;;;2.10;99.90;;;;;;5083578;28;20084;-85
2023/01/20 11:47:26;;;;;;;44.25;19.70;;;2.20;99.90;;;;;;5059143;28;20097;-89
2023/01/20 11:50:04;;;;;;;47.97;20.80;;;2.20;99.90;;;;;;5078279;28;20104;-85
2023/01/20 11:52:42;;;;;;;48.88;19.92;;;2.20;99.90;;;;;;5076197;28;20051;-87
2023/01/20 11:55:10;;;;;;;46.03;20.40;;;2.10;99.90;;;;;;5065394;28;20104;-84
2023/01/20 11:57:57;;;;;;;43.25;19.40;;;2.10;99.90;;;;;;5076382;28;20488;-85
2023/01/20 12:00:42;;;;;;;49.28;20.80;;;2.10;99.90;;;;;;5092026;28;20109;-86
2023/01/20 12:03:47;;;;;;;49.60;21.92;;;2.10;99.90;;;;;;5086422;28;20044;-85
2023/01/20 12:06:19;;;;;;;50.35;20.92;;;2.10;99.90;;;;;;5076083;28;20044;-84
2023/01/20 12:09:02;;;;;;;49.47;20.75;;;2.00;99.90;;;;;;5077512;28;20168;-85
2023/01/20 12:11:37;;;;;;;46.20;19.48;;;2.00;99.90;;;;;;5084856;28;20113;-83
2023/01/20 12:17:47;;;;;;;44.05;18.60;;;2.00;99.90;;;;;;5114240;28;20050;-85
2023/01/20 12:20:36;;;;;;;49.38;22.35;;;2.00;99.90;;;;;;5089909;28;20050;-86
2023/01/20 12:23:12;;;;;;;47.85;19.60;;;2.10;99.90;;;;;;5101006;27;20185;-84
2023/01/20 12:26:00;;;;;;;53.00;20.00;;;2.10;99.90;;;;;;5080462;28;20054;-83
2023/01/20 12:28:32;;;;;;;66.25;23.77;;;2.00;99.90;;;;;;5078328;28;20051;-84
2023/01/20 12:31:01;;;;;;;54.47;22.85;;;2.10;99.90;;;;;;5062835;28;20430;-84
2023/01/20 12:33:32;;;;;;;49.28;20.70;;;2.00;99.90;;;;;;5078618;28;20044;-83
2023/01/20 12:36:28;;;;;;;54.88;22.75;;;2.10;99.90;;;;;;5070042;28;20052;-84
2023/01/20 12:39:25;;;;;;;50.17;20.67;;;2.10;99.90;;;;;;5081957;28;20494;-84
2023/01/20 12:45:39;;;;;;;58.88;26.42;;;2.10;99.90;;;;;;5114791;28;20050;-84
2023/01/20 12:48:16;;;;;;;48.63;20.75;;;2.20;99.90;;;;;;5105080;28;20071;-84
2023/01/20 12:51:13;;;;;;;51.80;20.85;;;2.20;99.90;;;;;;5072640;28;20044;-86
2023/01/20 12:53:55;;;;;;;46.30;20.38;;;2.10;99.90;;;;;;5095979;28;20055;-85
2023/01/20 12:56:33;;;;;;;46.17;19.00;;;2.20;99.90;;;;;;5076901;28;20055;-84
2023/01/20 12:59:20;;;;;;;46.72;20.15;;;2.10;99.90;;;;;;5077984;28;20551;-84
2023/01/20 13:02:00;;;;;;;46.53;20.20;;;2.10;99.90;;;;;;5073352;28;20048;-84
2023/01/20 13:04:54;;;;;;;49.72;21.73;;;2.00;99.90;;;;;;5067172;28;20075;-84
2023/01/20 13:07:41;;;;;;;48.30;22.20;;;2.10;99.90;;;;;;5074090;28;20051;-83
2023/01/20 13:10:30;;;;;;;50.83;21.35;;;2.10;99.90;;;;;;5089873;28;20044;-84
2023/01/20 13:13:26;;;;;;;46.63;20.83;;;2.10;99.90;;;;;;5088908;28;20051;-83
2023/01/20 13:16:06;;;;;;;43.65;20.35;;;2.00;99.90;;;;;;5060623;28;20101;-85
2023/01/20 13:18:47;;;;;;;60.17;25.55;;;2.10;99.90;;;;;;5087774;28;20100;-84
2023/01/20 13:21:17;;;;;;;48.28;20.63;;;2.10;99.90;;;;;;5079088;28;20058;-83
2023/01/20 13:23:44;;;;;;;49.47;22.40;;;2.10;99.90;;;;;;5077415;28;20048;-83
2023/01/20 13:26:11;;;;;;;51.78;21.60;;;2.10;99.90;;;;;;5051067;28;20071;-84
2023/01/20 13:28:37;;;;;;;44.72;20.33;;;2.20;99.90;;;;;;5075434;28;20077;-86
2023/01/20 13:31:41;;;;;;;45.30;21.65;;;2.10;99.90;;;;;;5088845;28;20053;-83